createdAt,value
2019-03-25T00:00:32.181Z,87.95
2019-03-25T00:03:00.664Z,83.22
2019-03-25T00:05:28.998Z,82.10
2019-03-25T00:07:57.485Z,83.87
2019-03-25T00:10:26.299Z,85.22
2019-03-25T00:12:54.688Z,84.35
2019-03-25T00:15:23.253Z,88.95
2019-03-25T00:17:51.809Z,87.53
2019-03-25T00:20:20.391Z,91.00
2019-03-25T00:22:49.046Z,90.80
2019-03-25T00:25:17.377Z,95.40
2019-03-25T00:27:46.070Z,93.50
2019-03-25T00:30:16.280Z,88.97
2019-03-25T00:32:44.767Z,89.10
2019-03-25T00:35:13.083Z,86.97
2019-03-25T00:37:41.669Z,90.22
2019-03-25T00:40:10.132Z,89.47
2019-03-25T00:42:38.873Z,87.05
2019-03-25T00:45:07.739Z,88.12
2019-03-25T00:47:36.073Z,91.92
2019-03-25T00:50:07.005Z,85.65
2019-03-25T00:52:35.320Z,86.78
2019-03-25T00:55:04.602Z,86.05
2019-03-25T00:57:33.157Z,84.97
2019-03-25T01:00:01.500Z,86.85
2019-03-25T01:02:30.122Z,91.42
2019-03-25T01:04:58.629Z,86.57
2019-03-25T01:07:27.300Z,89.05
2019-03-25T01:09:55.819Z,84.62
2019-03-25T01:12:24.306Z,87.55
2019-03-25T01:14:52.828Z,85.60
2019-03-25T01:17:21.288Z,80.67
2019-03-25T01:19:49.767Z,80.05
2019-03-25T01:22:18.435Z,86.08
2019-03-25T01:24:47.096Z,84.17
2019-03-25T01:27:15.502Z,86.47
2019-03-25T01:29:43.998Z,89.85
2019-03-25T01:32:12.478Z,87.30
2019-03-25T01:34:41.040Z,87.22
2019-03-25T01:37:09.548Z,86.72
2019-03-25T01:39:38.202Z,83.82
2019-03-25T01:42:06.613Z,88.07
2019-03-25T01:44:35.105Z,85.25
2019-03-25T01:47:03.686Z,86.78
2019-03-25T01:49:32.246Z,81.75
2019-03-25T01:52:00.594Z,89.00
2019-03-25T01:54:29.078Z,89.50
2019-03-25T01:56:57.569Z,82.92
2019-03-25T01:59:26.073Z,86.95
2019-03-25T02:01:54.630Z,86.90
2019-03-25T02:04:23.141Z,86.08
2019-03-25T02:06:51.631Z,86.08
2019-03-25T02:09:20.307Z,86.90
2019-03-25T02:11:48.941Z,88.47
2019-03-25T02:14:17.459Z,90.75
2019-03-25T02:16:46.093Z,87.57
2019-03-25T02:19:14.564Z,85.25
2019-03-25T02:21:43.339Z,88.20
2019-03-25T02:24:11.851Z,87.05
2019-03-25T02:26:40.487Z,90.50
2019-03-25T02:29:08.816Z,84.67
2019-03-25T02:31:37.476Z,82.55
2019-03-25T02:34:06.260Z,82.72
2019-03-25T02:36:35.004Z,81.87
2019-03-25T02:39:04.230Z,85.80
2019-03-25T02:41:32.637Z,87.35
2019-03-25T02:44:01.018Z,86.40
2019-03-25T02:46:29.433Z,95.42
2019-03-25T02:48:57.745Z,86.35
2019-03-25T02:51:26.310Z,90.35
2019-03-25T02:53:54.696Z,91.67
2019-03-25T02:56:23.271Z,87.12
2019-03-25T02:58:51.817Z,90.05
2019-03-25T03:01:20.447Z,89.35
2019-03-25T03:03:48.928Z,90.75
2019-03-25T03:06:17.667Z,91.87
2019-03-25T03:08:47.616Z,93.65
2019-03-25T03:11:16.343Z,84.17
2019-03-25T03:13:45.198Z,91.70
2019-03-25T03:16:13.589Z,88.07
2019-03-25T03:18:42.169Z,97.05
2019-03-25T03:21:10.662Z,97.33
2019-03-25T03:23:39.176Z,100.07
2019-03-25T03:26:07.737Z,96.87
2019-03-25T03:28:36.587Z,97.30
2019-03-25T03:31:05.208Z,96.32
2019-03-25T03:33:33.771Z,104.27
2019-03-25T03:36:02.423Z,93.33
2019-03-25T03:38:30.775Z,89.13
2019-03-25T03:40:59.261Z,95.67
2019-03-25T03:43:27.785Z,98.82
2019-03-25T03:45:56.379Z,92.25
2019-03-25T03:48:24.872Z,96.92
2019-03-25T03:50:53.213Z,98.40
2019-03-25T03:53:21.885Z,95.72
2019-03-25T03:55:50.247Z,94.92
2019-03-25T03:58:18.629Z,91.65
2019-03-25T04:00:47.305Z,98.47
2019-03-25T04:03:15.700Z,95.03
2019-03-25T04:05:44.202Z,90.30
2019-03-25T04:08:13.163Z,86.10
2019-03-25T04:10:42.134Z,94.72
2019-03-25T04:13:10.681Z,82.82
2019-03-25T04:15:39.364Z,85.70
2019-03-25T04:18:08.021Z,90.77
2019-03-25T04:20:36.574Z,94.85
2019-03-25T04:23:04.991Z,90.65
2019-03-25T04:25:33.381Z,92.22
2019-03-25T04:28:01.881Z,89.20
2019-03-25T04:30:30.372Z,85.25
2019-03-25T04:32:58.965Z,88.10
2019-03-25T04:35:27.610Z,86.17
2019-03-25T04:37:56.704Z,86.90
2019-03-25T04:40:25.197Z,85.67
2019-03-25T04:42:53.698Z,89.25
2019-03-25T04:45:22.202Z,87.20
2019-03-25T04:47:50.588Z,81.70
2019-03-25T04:50:19.107Z,84.58
2019-03-25T04:52:47.425Z,85.95
2019-03-25T04:55:16.129Z,92.30
2019-03-25T04:57:44.515Z,87.47
2019-03-25T05:00:13.018Z,93.58
2019-03-25T05:02:41.574Z,95.17
2019-03-25T05:05:10.424Z,96.67
2019-03-25T05:07:39.084Z,98.47
2019-03-25T05:10:07.409Z,95.32
2019-03-25T05:12:35.985Z,93.45
2019-03-25T05:15:05.551Z,99.65
2019-03-25T05:17:34.148Z,102.72
2019-03-25T05:20:02.725Z,103.90
2019-03-25T05:22:31.322Z,105.45
2019-03-25T05:24:59.717Z,102.12
2019-03-25T05:27:28.390Z,106.20
2019-03-25T05:29:57.042Z,99.17
2019-03-25T05:32:25.569Z,101.10
2019-03-25T05:34:53.954Z,103.25
2019-03-25T05:37:22.548Z,101.00
2019-03-25T05:39:51.304Z,87.45
2019-03-25T05:42:20.002Z,96.25
2019-03-25T05:44:48.666Z,97.10
2019-03-25T05:47:17.247Z,92.37
2019-03-25T05:49:45.903Z,94.30
2019-03-25T05:52:14.389Z,90.00
2019-03-25T05:54:42.969Z,90.90
2019-03-25T05:57:11.482Z,87.47
2019-03-25T05:59:39.852Z,92.08
2019-03-25T06:02:08.399Z,83.05
2019-03-25T06:04:36.955Z,80.85
2019-03-25T06:07:05.504Z,83.35
2019-03-25T06:09:34.201Z,86.32
2019-03-25T06:12:02.597Z,74.65
2019-03-25T06:14:31.176Z,71.82
2019-03-25T06:16:59.586Z,72.72
2019-03-25T06:19:28.072Z,64.77
2019-03-25T06:21:56.594Z,60.23
2019-03-25T06:24:25.456Z,54.93
2019-03-25T06:26:53.935Z,53.42
2019-03-25T06:29:22.345Z,54.65
2019-03-25T06:31:50.748Z,54.23
2019-03-25T06:34:19.308Z,48.95
2019-03-25T06:36:47.648Z,51.15
2019-03-25T06:39:16.139Z,46.05
2019-03-25T06:41:44.656Z,49.73
2019-03-25T06:44:12.983Z,42.17
2019-03-25T06:46:41.667Z,40.12
2019-03-25T06:49:10.012Z,45.38
2019-03-25T06:51:38.567Z,41.53
2019-03-25T06:54:06.978Z,43.90
2019-03-25T06:56:35.425Z,43.40
2019-03-25T06:59:03.966Z,41.33
2019-03-25T07:01:32.536Z,46.88
2019-03-25T07:04:01.172Z,43.70
2019-03-25T07:06:29.651Z,45.35
2019-03-25T07:08:58.217Z,39.85
2019-03-25T07:11:26.703Z,31.37
2019-03-25T07:13:55.041Z,32.73
2019-03-25T07:16:23.592Z,34.67
2019-03-25T07:18:52.176Z,42.05
2019-03-25T07:21:20.720Z,33.83
2019-03-25T07:23:49.598Z,33.02
2019-03-25T07:26:18.006Z,25.20
2019-03-25T07:28:46.568Z,29.05
2019-03-25T07:31:15.138Z,35.52
2019-03-25T07:33:43.586Z,32.00
2019-03-25T07:36:12.173Z,37.88
2019-03-25T07:38:40.834Z,31.42
2019-03-25T07:41:09.412Z,30.50
2019-03-25T07:43:38.078Z,30.68
2019-03-25T07:46:06.589Z,31.15
2019-03-25T07:48:35.051Z,27.30
2019-03-25T07:51:03.639Z,24.80
2019-03-25T07:53:32.035Z,26.87
2019-03-25T07:56:00.809Z,31.40
2019-03-25T07:58:29.235Z,30.35
2019-03-25T08:00:57.789Z,31.68
2019-03-25T08:03:26.264Z,34.75
2019-03-25T08:05:54.924Z,32.25
2019-03-25T08:08:23.456Z,21.37
2019-03-25T08:10:51.998Z,29.12
2019-03-25T08:13:20.690Z,26.60
2019-03-25T08:15:49.350Z,23.65
2019-03-25T08:18:17.677Z,28.73
2019-03-25T08:20:46.180Z,28.65
2019-03-25T08:23:14.668Z,27.62
2019-03-25T08:25:42.993Z,26.00
2019-03-25T08:28:11.499Z,31.75
2019-03-25T08:30:39.918Z,27.65
2019-03-25T08:33:08.297Z,29.63
2019-03-25T08:35:36.611Z,28.00
2019-03-25T08:38:05.124Z,26.02
2019-03-25T08:40:33.796Z,28.77
2019-03-25T08:43:02.178Z,26.15
2019-03-25T08:45:30.513Z,25.02
2019-03-25T08:47:59.173Z,29.27
2019-03-25T08:50:27.517Z,28.47
2019-03-25T08:52:56.007Z,21.80
2019-03-25T08:55:24.406Z,26.70
2019-03-25T08:57:52.922Z,24.57
2019-03-25T09:00:21.347Z,25.00
2019-03-25T09:02:49.662Z,28.30
2019-03-25T09:05:18.006Z,25.23
2019-03-25T09:07:46.324Z,23.35
2019-03-25T09:10:14.803Z,31.17
2019-03-25T09:12:43.314Z,27.87
2019-03-25T09:15:11.625Z,19.00
2019-03-25T09:17:40.309Z,26.10
2019-03-25T09:20:08.628Z,23.87
2019-03-25T09:22:37.123Z,24.47
2019-03-25T09:25:08.536Z,22.98
2019-03-25T09:27:37.114Z,23.25
2019-03-25T09:30:06.660Z,20.32
2019-03-25T09:32:35.140Z,23.12
2019-03-25T09:35:04.418Z,22.55
2019-03-25T09:37:32.929Z,24.92
2019-03-25T09:40:01.451Z,17.52
2019-03-25T09:42:30.026Z,25.08
2019-03-25T09:44:58.410Z,20.55
2019-03-25T09:47:26.719Z,19.62
2019-03-25T09:49:55.053Z,21.70
2019-03-25T09:52:23.525Z,23.57
2019-03-25T09:54:52.026Z,15.03
2019-03-25T09:57:20.332Z,17.67
2019-03-25T09:59:48.833Z,15.88
2019-03-25T10:02:17.143Z,17.48
2019-03-25T10:04:45.471Z,17.02
2019-03-25T10:07:17.214Z,29.50
2019-03-25T10:09:45.631Z,21.02
2019-03-25T10:12:14.106Z,22.62
2019-03-25T10:14:42.596Z,16.27
2019-03-25T10:17:11.164Z,12.95
2019-03-25T10:19:39.536Z,13.72
2019-03-25T10:22:08.034Z,14.60
2019-03-25T10:24:36.581Z,28.85
2019-03-25T10:27:04.911Z,15.63
2019-03-25T10:29:33.562Z,17.92
2019-03-25T10:32:02.064Z,15.78
2019-03-25T10:34:30.648Z,9.85
2019-03-25T10:36:59.178Z,14.33
2019-03-25T10:39:27.617Z,12.00
2019-03-25T10:41:55.950Z,13.08
2019-03-25T10:44:24.271Z,9.35
2019-03-25T10:46:52.749Z,7.42
2019-03-25T10:49:21.262Z,9.50
2019-03-25T10:51:49.793Z,7.83
2019-03-25T10:54:18.217Z,16.52
2019-03-25T10:56:49.314Z,6.37
2019-03-25T10:59:16.801Z,11.63
2019-03-25T11:01:45.283Z,7.03
2019-03-25T11:04:13.836Z,7.45
2019-03-25T11:06:42.156Z,10.10
2019-03-25T11:09:10.499Z,9.55
2019-03-25T11:11:39.118Z,11.40
2019-03-25T11:14:07.754Z,9.05
2019-03-25T11:16:36.076Z,22.25
2019-03-25T11:19:04.465Z,10.85
2019-03-25T11:21:32.964Z,10.00
2019-03-25T11:24:01.580Z,6.25
2019-03-25T11:26:29.910Z,9.75
2019-03-25T11:29:04.389Z,7.20
2019-03-25T11:31:28.491Z,8.65
2019-03-25T11:33:56.841Z,5.62
2019-03-25T11:36:25.247Z,14.93
2019-03-25T11:38:53.581Z,7.75
2019-03-25T11:41:22.132Z,6.12
2019-03-25T11:43:50.687Z,13.65
2019-03-25T11:46:19.194Z,8.40
2019-03-25T11:48:47.529Z,15.08
2019-03-25T11:51:16.019Z,10.43
2019-03-25T11:53:44.404Z,17.17
2019-03-25T11:56:12.731Z,10.40
2019-03-25T11:58:41.062Z,17.45
2019-03-25T12:01:09.437Z,11.08
2019-03-25T12:03:37.858Z,7.80
2019-03-25T12:06:06.333Z,9.60
2019-03-25T12:08:34.670Z,6.37
2019-03-25T12:11:03.127Z,8.40
2019-03-25T12:13:31.639Z,14.53
2019-03-25T12:15:59.945Z,7.33
2019-03-25T12:18:28.461Z,4.47
2019-03-25T12:20:57.001Z,5.10
2019-03-25T12:23:26.599Z,8.58
2019-03-25T12:25:55.497Z,4.83
2019-03-25T12:28:23.831Z,4.58
2019-03-25T12:30:52.264Z,6.28
2019-03-25T12:33:20.620Z,4.95
2019-03-25T12:35:49.122Z,8.98
2019-03-25T12:38:17.600Z,7.67
2019-03-25T12:40:46.100Z,7.50
2019-03-25T12:43:14.497Z,5.35
2019-03-25T12:45:42.891Z,6.92
2019-03-25T12:48:11.562Z,4.97
2019-03-25T12:50:39.912Z,12.65
2019-03-25T12:53:08.457Z,5.95
2019-03-25T12:55:36.871Z,11.43
2019-03-25T12:58:07.378Z,11.22
2019-03-25T13:00:37.753Z,5.03
2019-03-25T13:03:06.306Z,6.50
2019-03-25T13:05:36.737Z,4.90
2019-03-25T13:08:05.125Z,13.70
2019-03-25T13:10:33.454Z,8.58
2019-03-25T13:13:02.002Z,7.90
2019-03-25T13:15:30.506Z,8.78
2019-03-25T13:17:58.828Z,18.23
2019-03-25T13:20:27.339Z,15.45
2019-03-25T13:22:55.675Z,8.35
2019-03-25T13:25:24.169Z,11.53
2019-03-25T13:27:52.631Z,8.60
2019-03-25T13:30:21.291Z,8.35
2019-03-25T13:32:49.666Z,9.20
2019-03-25T13:35:18.140Z,7.55
2019-03-25T13:37:46.614Z,7.30
2019-03-25T13:40:15.008Z,7.03
2019-03-25T13:42:43.530Z,8.73
2019-03-25T13:45:12.008Z,6.95
2019-03-25T13:47:40.660Z,7.28
2019-03-25T13:50:09.058Z,7.53
2019-03-25T13:52:37.641Z,5.28
2019-03-25T13:55:06.119Z,10.70
2019-03-25T13:57:34.543Z,4.97
2019-03-25T14:00:04.128Z,7.37
2019-03-25T14:02:32.729Z,6.92
2019-03-25T14:05:01.278Z,10.25
2019-03-25T14:07:29.794Z,6.22
2019-03-25T14:09:58.139Z,7.72
2019-03-25T14:12:26.624Z,2.65
2019-03-25T14:14:55.121Z,5.10
2019-03-25T14:17:23.425Z,4.20
2019-03-25T14:19:51.831Z,3.98
2019-03-25T14:22:20.320Z,4.05
2019-03-25T14:24:48.801Z,5.47
2019-03-25T14:27:17.293Z,4.30
2019-03-25T14:29:46.750Z,4.50
2019-03-25T14:32:15.393Z,4.10
2019-03-25T14:34:44.938Z,6.85
2019-03-25T14:37:13.743Z,10.03
2019-03-25T14:39:42.343Z,10.72
2019-03-25T14:42:10.895Z,9.03
2019-03-25T14:44:39.290Z,5.08
2019-03-25T14:47:07.957Z,8.58
2019-03-25T14:49:36.294Z,4.10
2019-03-25T14:52:04.791Z,7.92
2019-03-25T14:54:33.290Z,9.45
2019-03-25T14:57:01.752Z,6.87
2019-03-25T14:59:30.511Z,12.20
2019-03-25T15:01:59.145Z,7.47
2019-03-25T15:04:27.457Z,7.78
2019-03-25T15:06:56.117Z,8.18
2019-03-25T15:09:24.665Z,7.80
2019-03-25T15:11:53.241Z,5.28
2019-03-25T15:14:21.547Z,3.83
2019-03-25T15:16:50.046Z,6.37
2019-03-25T15:19:18.354Z,6.20
2019-03-25T15:21:46.753Z,3.92
2019-03-25T15:24:15.086Z,4.90
2019-03-25T15:26:43.385Z,2.72
2019-03-25T15:29:11.844Z,3.67
2019-03-25T15:31:40.341Z,3.80
2019-03-25T15:34:08.772Z,4.03
2019-03-25T15:36:37.137Z,2.72
2019-03-25T15:39:07.813Z,4.03
2019-03-25T15:41:36.291Z,2.72
2019-03-25T15:44:04.793Z,4.87
2019-03-25T15:46:33.269Z,5.42
2019-03-25T15:49:01.951Z,3.77
2019-03-25T15:51:30.606Z,6.53
2019-03-25T15:53:59.101Z,4.75
2019-03-25T15:56:27.399Z,5.33
2019-03-25T15:58:55.890Z,4.58
2019-03-25T16:01:24.210Z,4.60
2019-03-25T16:03:52.618Z,6.37
2019-03-25T16:06:22.407Z,6.00
2019-03-25T16:08:50.935Z,3.77
2019-03-25T16:11:19.270Z,6.12
2019-03-25T16:13:47.762Z,6.80
2019-03-25T16:16:16.268Z,6.03
2019-03-25T16:18:44.733Z,5.97
2019-03-25T16:21:13.337Z,6.55
2019-03-25T16:23:41.881Z,5.80
2019-03-25T16:26:10.381Z,6.50
2019-03-25T16:28:38.872Z,8.38
2019-03-25T16:31:07.374Z,5.50
2019-03-25T16:33:35.688Z,10.28
2019-03-25T16:36:04.020Z,7.92
2019-03-25T16:38:32.398Z,6.53
2019-03-25T16:41:00.898Z,3.98
2019-03-25T16:43:29.207Z,3.35
2019-03-25T16:45:57.611Z,4.78
2019-03-25T16:48:26.088Z,6.62
2019-03-25T16:50:54.426Z,6.78
2019-03-25T16:53:22.809Z,6.28
2019-03-25T16:55:51.186Z,3.87
2019-03-25T16:58:19.522Z,4.58
2019-03-25T17:00:48.025Z,5.45
2019-03-25T17:03:16.525Z,4.97
2019-03-25T17:05:44.835Z,4.70
2019-03-25T17:08:13.341Z,6.60
2019-03-25T17:10:41.675Z,3.98
2019-03-25T17:13:10.244Z,6.30
2019-03-25T17:15:38.723Z,4.65
2019-03-25T17:18:07.303Z,5.90
2019-03-25T17:20:35.628Z,5.42
2019-03-25T17:23:04.143Z,5.28
2019-03-25T17:25:32.471Z,4.80
2019-03-25T17:28:01.027Z,6.00
2019-03-25T17:30:29.604Z,4.92
2019-03-25T17:32:58.298Z,7.87
2019-03-25T17:35:27.057Z,5.40
2019-03-25T17:37:55.570Z,6.95
2019-03-25T17:40:24.220Z,3.10
2019-03-25T17:42:52.813Z,3.62
2019-03-25T17:45:21.558Z,3.35
2019-03-25T17:47:49.904Z,3.95
2019-03-25T17:50:18.387Z,4.75
2019-03-25T17:52:46.891Z,5.08
2019-03-25T17:55:17.045Z,6.97
2019-03-25T17:57:45.457Z,5.12
2019-03-25T18:00:13.885Z,4.62
2019-03-25T18:02:42.452Z,6.08
2019-03-25T18:05:11.024Z,6.45
2019-03-25T18:07:39.338Z,5.22
2019-03-25T18:10:07.862Z,3.80
2019-03-25T18:12:39.081Z,6.28
2019-03-25T18:15:13.127Z,6.30
2019-03-25T18:17:41.824Z,6.62
2019-03-25T18:20:18.485Z,4.62
2019-03-25T18:22:40.986Z,6.75
2019-03-25T18:25:09.904Z,9.73
2019-03-25T18:27:38.812Z,5.92
2019-03-25T18:30:08.352Z,4.95
2019-03-25T18:32:37.407Z,6.45
2019-03-25T18:35:06.594Z,4.75
2019-03-25T18:37:35.377Z,4.80
2019-03-25T18:40:04.048Z,5.37
2019-03-25T18:42:33.186Z,5.17
2019-03-25T18:45:01.641Z,5.85
2019-03-25T18:47:30.250Z,3.95
2019-03-25T18:49:59.048Z,4.20
2019-03-25T18:52:29.079Z,4.85
2019-03-25T18:54:57.812Z,3.72
2019-03-25T18:57:26.391Z,5.20
2019-03-25T18:59:55.054Z,6.00
2019-03-25T19:02:23.666Z,6.12
2019-03-25T19:04:52.420Z,5.70
2019-03-25T19:07:21.156Z,6.75
2019-03-25T19:09:50.045Z,6.25
2019-03-25T19:12:18.671Z,5.12
2019-03-25T19:14:47.703Z,4.85
2019-03-25T19:17:16.131Z,7.45
2019-03-25T19:19:44.594Z,5.47
2019-03-25T19:22:13.363Z,6.20
2019-03-25T19:24:41.701Z,3.70
2019-03-25T19:27:10.911Z,8.68
2019-03-25T19:29:39.608Z,5.25
2019-03-25T19:32:08.404Z,5.85
2019-03-25T19:34:37.194Z,5.92
2019-03-25T19:37:05.843Z,7.60
2019-03-25T19:39:34.566Z,5.95
2019-03-25T19:42:03.341Z,5.25
2019-03-25T19:44:31.809Z,6.45
2019-03-25T19:47:00.453Z,10.10
2019-03-25T19:49:28.946Z,6.47
2019-03-25T19:51:57.694Z,4.67
2019-03-25T19:54:26.372Z,3.77
2019-03-25T19:56:55.379Z,5.87
2019-03-25T19:59:23.977Z,5.08
2019-03-25T20:01:52.715Z,4.90
2019-03-25T20:04:21.534Z,4.00
2019-03-25T20:06:50.169Z,6.33
2019-03-25T20:09:19.266Z,2.83
2019-03-25T20:11:47.963Z,3.98
2019-03-25T20:14:17.080Z,4.40
2019-03-25T20:16:45.589Z,3.47
2019-03-25T20:19:14.271Z,4.55
2019-03-25T20:21:43.098Z,3.10
2019-03-25T20:24:12.093Z,3.92
2019-03-25T20:26:41.191Z,3.20
2019-03-25T20:29:09.898Z,1.95
2019-03-25T20:31:38.727Z,4.15
2019-03-25T20:34:11.253Z,3.30
2019-03-25T20:36:37.921Z,4.30
2019-03-25T20:39:08.706Z,2.10
2019-03-25T20:41:37.474Z,3.85
2019-03-25T20:44:06.402Z,3.40
2019-03-25T20:46:35.320Z,2.90
2019-03-25T20:49:04.066Z,5.40
2019-03-25T20:51:32.925Z,4.33
2019-03-25T20:54:03.055Z,5.75
2019-03-25T20:56:31.577Z,4.40
2019-03-25T20:59:00.311Z,4.87
2019-03-25T21:01:29.173Z,5.03
2019-03-25T21:04:00.819Z,6.42
2019-03-25T21:06:29.529Z,6.55
2019-03-25T21:08:58.417Z,5.62
2019-03-25T21:11:27.101Z,6.58
2019-03-25T21:13:55.950Z,5.47
2019-03-25T21:16:24.710Z,5.75
2019-03-25T21:18:53.467Z,6.92
2019-03-25T21:21:22.382Z,6.20
2019-03-25T21:23:50.997Z,9.00
2019-03-25T21:26:21.339Z,7.00
2019-03-25T21:28:49.946Z,6.30
2019-03-25T21:31:19.103Z,8.28
2019-03-25T21:33:47.742Z,6.17
2019-03-25T21:36:16.540Z,9.80
2019-03-25T21:38:45.508Z,7.47
2019-03-25T21:41:14.204Z,9.08
2019-03-25T21:43:42.963Z,8.60
2019-03-25T21:46:11.748Z,10.32
2019-03-25T21:48:42.057Z,9.05
2019-03-25T21:51:12.585Z,9.68
2019-03-25T21:53:42.844Z,9.80
2019-03-25T21:56:11.681Z,7.25
2019-03-25T21:58:40.526Z,10.38
2019-03-25T22:01:09.259Z,7.17
2019-03-25T22:03:37.630Z,8.10
2019-03-25T22:06:06.277Z,7.45
2019-03-25T22:08:34.645Z,9.08
2019-03-25T22:11:03.345Z,8.48
2019-03-25T22:13:31.776Z,10.72
2019-03-25T22:16:00.363Z,7.95
2019-03-25T22:18:30.719Z,8.78
2019-03-25T22:20:59.121Z,8.00
2019-03-25T22:23:27.532Z,7.70
2019-03-25T22:25:57.038Z,6.78
2019-03-25T22:28:25.568Z,7.28
2019-03-25T22:30:56.684Z,7.15
2019-03-25T22:33:26.290Z,6.12
2019-03-25T22:35:55.201Z,7.70
2019-03-25T22:38:26.804Z,7.12
2019-03-25T22:40:55.402Z,8.43
2019-03-25T22:43:23.798Z,5.30
2019-03-25T22:45:55.334Z,7.12
2019-03-25T22:48:27.305Z,5.75
2019-03-25T22:50:57.462Z,7.45
2019-03-25T22:53:25.997Z,9.63
2019-03-25T22:55:54.865Z,5.90
2019-03-25T22:58:25.905Z,7.58
2019-03-25T23:00:56.055Z,7.22
2019-03-25T23:03:24.630Z,5.25
2019-03-25T23:05:57.682Z,8.95
2019-03-25T23:08:26.248Z,5.90
2019-03-25T23:10:54.573Z,7.65
2019-03-25T23:13:30.408Z,8.73
2019-03-25T23:16:13.849Z,7.37
2019-03-25T23:18:42.259Z,7.58
2019-03-25T23:21:10.607Z,8.15
2019-03-25T23:23:39.000Z,6.92
2019-03-25T23:26:07.392Z,11.18
2019-03-25T23:28:35.916Z,8.28
2019-03-25T23:31:04.735Z,6.92
2019-03-25T23:33:33.083Z,6.80
2019-03-25T23:36:05.066Z,5.83
2019-03-25T23:38:33.673Z,5.03
2019-03-25T23:41:03.685Z,7.72
2019-03-25T23:43:34.712Z,7.78
2019-03-25T23:46:03.287Z,7.60
2019-03-25T23:48:31.665Z,11.15
2019-03-25T23:51:00.034Z,8.83
2019-03-25T23:53:28.523Z,8.88
2019-03-25T23:55:57.023Z,8.40
2019-03-25T23:58:25.703Z,8.83
